createdAt,value
2024-02-29T00:01:44.493Z,48.30
2024-02-29T00:06:52.353Z,51.30
2024-02-29T00:12:00.145Z,49.90
2024-02-29T00:17:07.711Z,43.70
2024-02-29T00:22:15.759Z,49.90
2024-02-29T00:27:23.735Z,47.70
2024-02-29T00:32:31.480Z,48.80
2024-02-29T00:37:39.202Z,55.50
2024-02-29T00:42:47.191Z,52.90
2024-02-29T00:47:56.482Z,59.50
2024-02-29T00:53:04.655Z,52.90
2024-02-29T00:58:12.899Z,61.70
2024-02-29T01:03:20.588Z,62.70
2024-02-29T01:08:28.253Z,58.50
2024-02-29T01:13:36.341Z,64.10
2024-02-29T01:18:46.094Z,65.40
2024-02-29T01:23:54.309Z,71.30
2024-02-29T01:29:02.691Z,66.50
2024-02-29T01:34:10.497Z,62.80
2024-02-29T01:39:19.136Z,82.20
2024-02-29T01:44:28.029Z,78.40
2024-02-29T01:49:36.650Z,85.00
2024-02-29T01:54:45.957Z,77.10
2024-02-29T01:59:53.911Z,90.50
2024-02-29T02:05:01.542Z,91.50
2024-02-29T02:10:12.790Z,90.60
2024-02-29T02:15:20.928Z,86.60
2024-02-29T02:20:29.909Z,100.90
2024-02-29T02:25:37.496Z,95.80
2024-02-29T02:30:45.222Z,109.10
2024-02-29T02:35:53.712Z,104.60
2024-02-29T02:41:01.218Z,101.40
2024-02-29T02:46:10.133Z,101.20
2024-02-29T02:51:18.109Z,86.10
2024-02-29T02:56:25.668Z,83.70
2024-02-29T03:01:33.276Z,85.90
2024-02-29T03:06:41.294Z,111.70
2024-02-29T03:11:49.614Z,116.90
2024-02-29T03:16:57.516Z,110.70
2024-02-29T03:22:05.108Z,150.20
2024-02-29T03:27:13.272Z,103.70
2024-02-29T03:32:24.075Z,124.40
2024-02-29T03:42:40.845Z,102.40
2024-02-29T03:47:48.461Z,121.40
2024-02-29T03:52:56.780Z,95.60
2024-02-29T03:58:04.566Z,115.50
2024-02-29T04:03:12.154Z,107.60
2024-02-29T04:08:19.923Z,118.70
2024-02-29T04:13:27.867Z,122.00
2024-02-29T04:18:35.416Z,113.80
2024-02-29T04:23:43.636Z,119.60
2024-02-29T04:28:52.180Z,116.20
2024-02-29T04:34:00.280Z,114.90
2024-02-29T04:39:08.353Z,107.70
2024-02-29T04:44:17.707Z,129.20
2024-02-29T04:49:25.521Z,118.60
2024-02-29T04:54:33.113Z,109.90
2024-02-29T04:59:40.634Z,123.10
2024-02-29T05:04:49.421Z,122.60
2024-02-29T05:09:57.087Z,132.40
2024-02-29T05:15:04.911Z,149.50
2024-02-29T05:20:14.037Z,158.30
2024-02-29T05:25:21.743Z,145.60
2024-02-29T05:30:29.478Z,161.40
2024-02-29T05:35:40.984Z,168.00
2024-02-29T05:40:50.977Z,160.50
2024-02-29T05:45:58.773Z,143.60
2024-02-29T05:51:08.650Z,159.40
2024-02-29T05:56:16.706Z,160.20
2024-02-29T06:01:24.922Z,157.30
2024-02-29T06:06:32.953Z,146.90
2024-02-29T06:11:40.577Z,281.70
2024-02-29T06:16:48.092Z,144.30
2024-02-29T06:21:55.748Z,157.90
2024-02-29T06:27:03.618Z,176.30
2024-02-29T06:32:11.725Z,163.00
2024-02-29T06:37:19.471Z,148.80
2024-02-29T06:42:28.228Z,162.30
2024-02-29T06:47:36.224Z,147.60
2024-02-29T06:52:43.933Z,139.30
2024-02-29T06:57:52.802Z,176.80
2024-02-29T07:03:01.504Z,147.60
2024-02-29T07:08:12.698Z,129.90
2024-02-29T07:13:20.817Z,193.60
2024-02-29T07:18:28.427Z,135.80
2024-02-29T07:23:37.403Z,157.00
2024-02-29T07:28:45.087Z,126.70
2024-02-29T07:33:55.531Z,119.50
2024-02-29T07:39:03.772Z,123.90
2024-02-29T07:44:11.847Z,142.60
2024-02-29T07:49:19.643Z,120.00
2024-02-29T07:54:27.825Z,121.00
2024-02-29T07:59:35.284Z,128.70
2024-02-29T08:04:43.400Z,125.60
2024-02-29T08:09:51.020Z,113.20
2024-02-29T08:14:58.999Z,111.60
2024-02-29T08:20:09.366Z,114.20
2024-02-29T08:25:17.489Z,99.50
2024-02-29T08:30:25.525Z,105.20
2024-02-29T08:35:33.928Z,108.90
2024-02-29T08:40:41.923Z,105.70
2024-02-29T08:45:49.779Z,105.70
2024-02-29T08:50:58.067Z,105.10
2024-02-29T08:56:05.837Z,108.40
2024-02-29T09:01:13.722Z,96.00
2024-02-29T09:06:21.505Z,95.60
2024-02-29T09:11:31.544Z,90.80
2024-02-29T09:16:39.923Z,92.40
2024-02-29T09:21:48.522Z,96.20
2024-02-29T09:26:56.015Z,100.20
2024-02-29T09:32:04.268Z,110.20
2024-02-29T09:37:12.468Z,98.70
2024-02-29T09:42:20.503Z,99.00
2024-02-29T09:47:29.651Z,91.90
2024-02-29T09:52:40.034Z,88.50
2024-02-29T09:57:48.937Z,86.80
2024-02-29T10:02:57.449Z,90.90
2024-02-29T10:08:06.994Z,86.40
2024-02-29T10:13:14.756Z,89.70
2024-02-29T10:18:22.769Z,95.50
2024-02-29T10:23:34.745Z,92.60
2024-02-29T10:28:42.165Z,90.80
2024-02-29T10:33:52.629Z,78.50
2024-02-29T10:39:00.404Z,90.80
2024-02-29T10:44:11.429Z,83.70
2024-02-29T10:49:25.567Z,87.50
2024-02-29T10:54:40.946Z,89.80
2024-02-29T10:59:56.100Z,87.50
2024-02-29T11:05:04.532Z,82.00
2024-02-29T11:10:13.543Z,82.60
2024-02-29T11:15:28.408Z,85.40
2024-02-29T11:20:35.829Z,83.60
2024-02-29T11:25:46.345Z,72.10
2024-02-29T11:30:53.819Z,77.50
2024-02-29T11:36:02.015Z,77.20
2024-02-29T11:41:19.993Z,84.20
2024-02-29T11:46:27.486Z,74.30
2024-02-29T11:51:35.115Z,80.10
2024-02-29T11:56:42.526Z,76.00
2024-02-29T12:01:50.050Z,80.60
2024-02-29T12:06:58.398Z,84.00
2024-02-29T12:12:07.763Z,91.00
2024-02-29T12:17:15.228Z,89.70
2024-02-29T12:22:22.975Z,84.10
2024-02-29T12:27:30.782Z,93.80
2024-02-29T12:32:40.918Z,86.80
2024-02-29T12:37:49.177Z,94.20
2024-02-29T12:42:57.075Z,86.20
2024-02-29T12:48:04.617Z,85.00
2024-02-29T12:53:12.355Z,98.20
2024-02-29T12:58:20.568Z,95.50
2024-02-29T13:03:29.963Z,86.50
2024-02-29T13:08:39.333Z,89.30
2024-02-29T13:13:47.396Z,86.40
2024-02-29T13:18:56.105Z,98.60
2024-02-29T13:24:04.064Z,88.70
2024-02-29T13:29:14.392Z,91.50
2024-02-29T13:34:22.700Z,84.00
2024-02-29T13:39:30.253Z,95.10
2024-02-29T13:44:37.988Z,86.80
2024-02-29T13:49:46.019Z,97.10
2024-02-29T13:54:53.935Z,81.10
2024-02-29T14:00:01.912Z,98.90
2024-02-29T14:05:10.150Z,91.50
2024-02-29T14:10:18.586Z,108.10
2024-02-29T14:15:26.141Z,105.80
2024-02-29T14:20:35.250Z,98.80
2024-02-29T14:25:46.628Z,93.90
2024-02-29T14:30:55.259Z,96.10
2024-02-29T14:36:02.726Z,115.70
2024-02-29T14:41:10.184Z,107.00
2024-02-29T14:46:19.907Z,106.50
2024-02-29T14:51:27.676Z,99.90
2024-02-29T14:56:35.112Z,97.80
2024-02-29T15:01:43.196Z,99.10
2024-02-29T15:06:50.947Z,104.40
2024-02-29T15:11:58.670Z,97.40
2024-02-29T15:17:06.987Z,93.00
2024-02-29T15:22:18.123Z,95.40
2024-02-29T15:27:27.293Z,105.00
2024-02-29T15:32:34.762Z,101.30
2024-02-29T15:37:42.245Z,99.80
2024-02-29T15:42:49.704Z,94.60
2024-02-29T15:47:57.241Z,104.60
2024-02-29T15:53:13.947Z,96.90
2024-02-29T15:58:22.838Z,104.70
2024-02-29T16:03:48.603Z,109.80
2024-02-29T16:08:56.187Z,105.80
2024-02-29T16:14:03.749Z,100.20
2024-02-29T16:19:12.862Z,102.20
2024-02-29T16:24:21.280Z,115.90
2024-02-29T16:29:29.586Z,113.80
2024-02-29T16:34:38.407Z,114.90
2024-02-29T16:39:47.323Z,115.90
2024-02-29T16:44:56.231Z,114.10
2024-02-29T16:50:03.926Z,118.60
2024-02-29T16:55:12.080Z,114.80
2024-02-29T17:00:23.758Z,138.70
2024-02-29T17:05:31.929Z,121.90
2024-02-29T17:10:39.655Z,162.90
2024-02-29T17:15:47.935Z,135.40
2024-02-29T17:20:55.946Z,119.20
2024-02-29T17:26:04.525Z,132.10
2024-02-29T17:31:12.145Z,129.00
2024-02-29T17:36:19.773Z,129.90
2024-02-29T17:41:27.237Z,144.60
2024-02-29T17:46:34.850Z,153.20
2024-02-29T17:51:47.944Z,134.20
2024-02-29T17:56:56.425Z,136.90
2024-02-29T18:02:04.933Z,133.40
2024-02-29T18:07:12.469Z,122.60
2024-02-29T18:12:20.126Z,136.10
2024-02-29T18:17:28.206Z,134.90
2024-02-29T18:22:35.916Z,133.30
2024-02-29T18:27:43.461Z,154.80
2024-02-29T18:32:51.252Z,151.30
2024-02-29T18:37:58.751Z,156.20
2024-02-29T18:43:08.443Z,152.80
2024-02-29T18:48:16.160Z,166.80
2024-02-29T18:53:23.655Z,151.00
2024-02-29T18:58:32.343Z,159.40
2024-02-29T19:03:40.348Z,170.00
2024-02-29T19:08:48.664Z,161.80
2024-02-29T19:13:57.519Z,162.20
2024-02-29T19:19:05.109Z,174.80
2024-02-29T19:24:13.888Z,177.60
2024-02-29T19:29:21.527Z,195.40
2024-02-29T19:34:31.016Z,187.80
2024-02-29T19:39:41.363Z,203.00
2024-02-29T19:44:49.084Z,198.00
2024-02-29T19:50:00.134Z,197.80
2024-02-29T19:55:11.968Z,190.40
2024-02-29T20:00:22.038Z,195.10
2024-02-29T20:05:29.684Z,203.40
2024-02-29T20:10:37.512Z,204.30
2024-02-29T20:15:45.091Z,217.10
2024-02-29T20:20:53.664Z,199.80
2024-02-29T20:26:01.913Z,206.60
2024-02-29T20:31:10.019Z,194.80
2024-02-29T20:36:18.315Z,210.90
2024-02-29T20:41:26.931Z,216.40
2024-02-29T20:46:35.523Z,235.50
2024-02-29T20:52:02.725Z,228.50
2024-02-29T20:57:16.975Z,219.30
2024-02-29T21:02:24.796Z,221.90
2024-02-29T21:07:34.775Z,214.30
2024-02-29T21:12:43.265Z,232.60
2024-02-29T21:17:51.924Z,241.60
2024-02-29T21:22:59.525Z,233.00
2024-02-29T21:28:07.456Z,246.30
2024-02-29T21:33:15.796Z,242.60
2024-02-29T21:38:23.384Z,230.00
2024-02-29T21:43:31.189Z,221.80
2024-02-29T21:48:39.127Z,204.50
2024-02-29T21:53:46.728Z,206.10
2024-02-29T21:58:54.240Z,219.60
2024-02-29T22:04:01.715Z,207.80
2024-02-29T22:09:09.337Z,215.50
2024-02-29T22:14:16.877Z,216.50
2024-02-29T22:19:24.485Z,205.00
2024-02-29T22:24:32.030Z,209.50
2024-02-29T22:29:39.916Z,226.90
2024-02-29T22:34:47.551Z,216.80
2024-02-29T22:39:55.406Z,226.70
2024-02-29T22:45:03.210Z,239.50
2024-02-29T22:50:12.257Z,213.10
2024-02-29T22:55:20.035Z,230.10
2024-02-29T23:00:31.875Z,234.80
2024-02-29T23:10:46.416Z,213.60
2024-02-29T23:15:54.238Z,219.60
2024-02-29T23:21:01.977Z,213.30
2024-02-29T23:26:09.521Z,216.50
2024-02-29T23:31:17.928Z,235.60
2024-02-29T23:36:25.638Z,200.70
2024-02-29T23:41:33.107Z,218.90
2024-02-29T23:46:41.804Z,243.90
2024-02-29T23:51:49.153Z,225.90
2024-02-29T23:56:58.342Z,241.90
